createdAt,value
2022-10-31T00:00:19.285Z,0.00
2022-10-31T00:05:19.136Z,0.00
2022-10-31T00:10:19.079Z,0.00
2022-10-31T00:15:19.043Z,0.00
2022-10-31T00:20:18.970Z,0.00
2022-10-31T00:25:18.913Z,0.00
2022-10-31T05:00:30.597Z,0.00
2022-10-31T05:05:30.496Z,0.00
2022-10-31T05:10:30.454Z,0.00
2022-10-31T05:15:37.459Z,0.00
2022-10-31T05:20:30.321Z,0.00
2022-10-31T05:25:30.288Z,0.00
2022-10-31T05:30:30.219Z,0.00
2022-10-31T05:35:30.197Z,0.00
2022-10-31T05:40:30.104Z,0.00
2022-10-31T05:45:30.058Z,0.00
2022-10-31T05:50:29.991Z,0.00
2022-10-31T05:55:30.091Z,4.00
2022-10-31T06:00:29.886Z,8.00
2022-10-31T06:05:29.859Z,24.00
2022-10-31T06:10:29.773Z,48.00
2022-10-31T06:15:29.762Z,92.00
2022-10-31T06:20:29.662Z,156.00
2022-10-31T06:25:29.635Z,224.00
2022-10-31T06:30:29.552Z,324.00
2022-10-31T06:35:29.547Z,452.00
2022-10-31T06:40:29.444Z,600.00
2022-10-31T06:45:29.407Z,768.00
2022-10-31T06:50:29.339Z,960.00
2022-10-31T06:55:29.321Z,1140.00
2022-10-31T07:00:29.350Z,1340.00
2022-10-31T07:05:29.191Z,1532.00
2022-10-31T07:10:29.189Z,1676.00
2022-10-31T07:15:29.201Z,1804.00
2022-10-31T07:20:29.017Z,1844.00
2022-10-31T07:25:28.968Z,1788.00
2022-10-31T07:30:28.894Z,1640.00
2022-10-31T07:35:28.869Z,1524.00
2022-10-31T07:40:28.821Z,1564.00
2022-10-31T07:45:28.733Z,1864.00
2022-10-31T07:50:28.685Z,2280.00
2022-10-31T07:55:28.651Z,2652.00
2022-10-31T08:00:28.663Z,2948.00
2022-10-31T08:05:28.549Z,3136.00
2022-10-31T08:10:28.464Z,3332.00
2022-10-31T08:15:28.432Z,3436.00
2022-10-31T08:20:28.354Z,3552.00
2022-10-31T08:25:30.925Z,3568.00
2022-10-31T08:30:29.256Z,3568.00
2022-10-31T08:35:28.201Z,3544.00
2022-10-31T08:40:28.141Z,3504.00
2022-10-31T08:45:28.098Z,3636.00
2022-10-31T08:50:28.033Z,3872.00
2022-10-31T08:55:27.994Z,4116.00
2022-10-31T09:00:27.925Z,4064.00
2022-10-31T09:05:27.872Z,3940.00
2022-10-31T09:10:27.812Z,3932.00
2022-10-31T09:15:27.785Z,4156.00
2022-10-31T09:20:27.722Z,4288.00
2022-10-31T09:25:27.657Z,4288.00
2022-10-31T09:30:27.596Z,4264.00
2022-10-31T09:35:27.595Z,4160.00
2022-10-31T09:40:27.489Z,4548.00
2022-10-31T09:45:27.432Z,4936.00
2022-10-31T09:50:27.380Z,5112.00
2022-10-31T09:55:27.372Z,5388.00
2022-10-31T10:00:27.301Z,5404.00
2022-10-31T10:05:27.223Z,5316.00
2022-10-31T10:10:27.153Z,5340.00
2022-10-31T10:15:27.127Z,5808.00
2022-10-31T10:20:27.060Z,6592.00
2022-10-31T10:25:27.006Z,6012.00
2022-10-31T10:30:26.955Z,6028.00
2022-10-31T10:35:26.915Z,5876.00
2022-10-31T10:40:26.847Z,6308.00
2022-10-31T10:45:26.792Z,6276.00
2022-10-31T10:50:26.747Z,6352.00
2022-10-31T10:55:26.694Z,5324.00
2022-10-31T11:00:26.734Z,5016.00
2022-10-31T11:05:26.597Z,4944.00
2022-10-31T11:10:26.588Z,5456.00
2022-10-31T11:15:26.484Z,5724.00
2022-10-31T11:20:26.408Z,5764.00
2022-10-31T11:25:26.368Z,5432.00
2022-10-31T11:30:26.308Z,5388.00
2022-10-31T11:35:26.289Z,5416.00
2022-10-31T11:40:26.189Z,5964.00
2022-10-31T11:45:26.150Z,5784.00
2022-10-31T11:50:26.067Z,5280.00
2022-10-31T11:55:26.042Z,5528.00
2022-10-31T12:00:25.979Z,5432.00
2022-10-31T12:05:25.894Z,5028.00
2022-10-31T12:10:25.850Z,5472.00
2022-10-31T12:15:25.824Z,5336.00
2022-10-31T12:20:25.749Z,5324.00
2022-10-31T12:25:25.679Z,5472.00
2022-10-31T12:30:25.635Z,5456.00
2022-10-31T12:35:25.697Z,5360.00
2022-10-31T12:40:25.519Z,5424.00
2022-10-31T12:45:25.472Z,5116.00
2022-10-31T12:50:25.419Z,5080.00
2022-10-31T12:55:25.403Z,4848.00
2022-10-31T13:00:28.063Z,4576.00
2022-10-31T13:05:26.254Z,4428.00
2022-10-31T13:10:25.199Z,4368.00
2022-10-31T13:15:25.154Z,4068.00
2022-10-31T13:20:25.088Z,3932.00
2022-10-31T13:25:25.035Z,4052.00
2022-10-31T13:30:24.985Z,4192.00
2022-10-31T13:35:24.929Z,4080.00
2022-10-31T13:40:24.866Z,4572.00
2022-10-31T13:45:24.813Z,4644.00
2022-10-31T13:50:24.764Z,4572.00
2022-10-31T13:55:24.710Z,4324.00
2022-10-31T14:00:24.642Z,3880.00
2022-10-31T14:05:25.035Z,3444.00
2022-10-31T14:10:24.534Z,3040.00
2022-10-31T14:15:24.586Z,2996.00
2022-10-31T14:20:24.435Z,2796.00
2022-10-31T14:25:24.355Z,2736.00
2022-10-31T14:30:24.313Z,2732.00
2022-10-31T14:35:24.275Z,2732.00
2022-10-31T14:40:24.217Z,2648.00
2022-10-31T14:45:24.134Z,2464.00
2022-10-31T14:50:24.096Z,2296.00
2022-10-31T14:55:24.070Z,2208.00
2022-10-31T15:00:23.981Z,2140.00
2022-10-31T15:05:23.938Z,2084.00
2022-10-31T15:10:24.378Z,2052.00
2022-10-31T15:15:23.844Z,1964.00
2022-10-31T15:20:23.776Z,1744.00
2022-10-31T15:25:23.722Z,1516.00
2022-10-31T15:30:23.672Z,1288.00
2022-10-31T15:35:23.607Z,1020.00
2022-10-31T15:40:23.613Z,832.00
2022-10-31T15:45:23.512Z,676.00
2022-10-31T15:50:23.454Z,540.00
2022-10-31T15:55:23.407Z,404.00
2022-10-31T16:00:23.389Z,264.00
2022-10-31T16:05:23.284Z,160.00
2022-10-31T16:10:23.336Z,92.00
2022-10-31T16:15:23.187Z,52.00
2022-10-31T16:20:23.179Z,20.00
2022-10-31T16:25:23.067Z,12.00
2022-10-31T16:30:23.026Z,4.00
2022-10-31T16:35:22.969Z,0.00
2022-10-31T16:40:22.947Z,0.00
2022-10-31T16:45:22.848Z,0.00
2022-10-31T16:50:22.813Z,0.00
2022-10-31T16:55:22.894Z,0.00
2022-10-31T17:00:22.718Z,0.00
2022-10-31T17:05:22.642Z,0.00
2022-10-31T17:10:22.598Z,0.00
2022-10-31T17:15:29.595Z,0.00
2022-10-31T17:20:22.479Z,0.00
2022-10-31T17:25:22.430Z,0.00
2022-10-31T17:30:22.360Z,0.00
2022-10-31T17:35:22.335Z,0.00
2022-10-31T17:40:22.258Z,0.00
2022-10-31T17:45:22.206Z,0.00
2022-10-31T17:50:22.151Z,0.00
2022-10-31T17:55:22.116Z,0.00
2022-10-31T18:00:22.043Z,0.00
2022-10-31T18:05:21.985Z,0.00
2022-10-31T18:10:21.966Z,0.00
2022-10-31T18:15:22.022Z,0.00
2022-10-31T18:20:21.818Z,0.00
2022-10-31T18:25:21.782Z,0.00
2022-10-31T18:30:21.713Z,0.00
2022-10-31T18:35:21.675Z,0.00
2022-10-31T18:40:21.611Z,0.00
2022-10-31T18:45:33.904Z,0.00
2022-10-31T18:50:22.528Z,0.00
2022-10-31T18:55:21.476Z,0.00
2022-10-31T19:00:21.399Z,0.00
2022-10-31T19:05:21.333Z,0.00
2022-10-31T19:10:21.270Z,0.00
2022-10-31T19:15:21.244Z,0.00
2022-10-31T19:20:21.812Z,0.00
2022-10-31T19:25:21.118Z,0.00
2022-10-31T19:30:21.069Z,0.00
2022-10-31T19:35:21.029Z,0.00
2022-10-31T19:40:20.954Z,0.00
2022-10-31T19:45:20.920Z,0.00
2022-10-31T19:50:20.833Z,0.00
2022-10-31T19:55:20.807Z,0.00
2022-10-31T20:00:20.742Z,0.00
2022-10-31T20:05:20.682Z,0.00
2022-10-31T20:10:20.629Z,0.00
2022-10-31T20:15:20.593Z,0.00
2022-10-31T20:20:20.517Z,0.00
2022-10-31T20:25:20.474Z,0.00
2022-10-31T20:30:20.394Z,0.00
2022-10-31T20:35:20.377Z,0.00
2022-10-31T20:40:20.315Z,0.00
2022-10-31T20:45:20.250Z,0.00
2022-10-31T20:50:20.190Z,0.00
2022-10-31T20:55:20.158Z,0.00
2022-10-31T21:00:20.093Z,0.00
2022-10-31T21:05:20.014Z,0.00
2022-10-31T21:10:19.973Z,0.00
2022-10-31T21:15:19.944Z,0.00
2022-10-31T21:20:19.861Z,0.00
2022-10-31T21:25:19.812Z,0.00
2022-10-31T21:30:19.757Z,0.00
2022-10-31T21:35:19.722Z,0.00
2022-10-31T21:40:19.661Z,0.00
2022-10-31T21:45:19.593Z,0.00
2022-10-31T21:50:19.539Z,0.00
2022-10-31T21:55:19.510Z,0.00
2022-10-31T22:00:19.434Z,0.00
2022-10-31T22:05:19.378Z,0.00
2022-10-31T22:10:19.323Z,0.00
2022-10-31T22:15:19.300Z,0.00
2022-10-31T22:20:19.225Z,0.00
2022-10-31T22:25:19.162Z,0.00
2022-10-31T22:30:19.103Z,0.00
2022-10-31T22:35:19.077Z,0.00
2022-10-31T22:40:19.000Z,0.00
2022-10-31T22:45:18.944Z,0.00
2022-10-31T22:50:18.891Z,0.00
2022-10-31T22:55:18.860Z,0.00
2022-10-31T23:00:18.782Z,0.00
2022-10-31T23:05:18.727Z,0.00
2022-10-31T23:10:18.676Z,0.00
2022-10-31T23:15:25.685Z,0.00
2022-10-31T23:20:18.564Z,0.00
2022-10-31T23:25:18.511Z,0.00
2022-10-31T23:30:18.459Z,0.00
2022-10-31T23:35:18.424Z,0.00
2022-10-31T23:40:18.353Z,0.00
2022-10-31T23:45:18.296Z,0.00
2022-10-31T23:50:18.245Z,0.00
2022-10-31T23:55:18.291Z,0.00
